Panama, Oklahoma
Current Conditions -  °F | °C
As of 11:55 PM on Saturday 22 Nov 2014 (Local Time) from KRKR Reporting Station
Broken Clouds Broken Clouds  
Wind Chill: 59°   Ceiling: 3400
Heat Index: 59°   Visibility: 10mi
Dew Point: 55°   Wind: 0mph
Humidity: 84%   Direction: NA
Pressure: 29.72"   Gusts: NA
Location:  35.17°N, 94.67°W
Report Text: KRKR 230555Z AUTO 00000KT 10SM SCT020 SCT026 BKN034 15/13 A2972 RMK AO2 T01510125 10151 20117 401550117
Loading
Personal Weather Stations






























Interactive Weather Map New forecast layout! Learn more

10-Day Weather Forecast

Advertisements
Track Severe Weather on mobile